Time;durP1;ratioP1;P1;durP2;ratioP2;P2;SDS_P1;SDS_P2;PMS_P1;PMS_P2;Temp;Humidity;BMP_temperature;BMP_pressure;BME280_temperature;BME280_humidity;BME280_pressure;Samples;Min_cycle;Max_cycle;Signal;HPM_P1;HPM_P2
2024/02/02 00:00:27;;;;;;;;;;;;;;;5.30;100.00;103091.91;5117721;28;20014;-72
2024/02/02 00:02:52;;;;;;;;;;;;;;;5.26;100.00;103071.91;5117700;28;19926;-72
2024/02/02 00:05:18;;;;;;;;;;;;;;;5.26;100.00;103055.47;5117772;28;19915;-72
2024/02/02 00:07:43;;;;;;;;;;;;;;;5.23;100.00;103060.59;5117349;28;20054;-72
2024/02/02 00:10:08;;;;;;;;;;;;;;;5.21;100.00;103052.78;5116136;28;19920;-72
2024/02/02 00:12:35;;;;;;;;;;;;;;;5.27;100.00;103062.41;5117565;28;19947;-72
2024/02/02 00:15:00;;;;;;;;;;;;;;;5.27;100.00;103070.19;5109011;28;20305;-72
2024/02/02 00:17:25;;;;;;;;;;;;;;;5.29;100.00;103063.28;5117290;28;20291;-72
2024/02/02 00:19:51;;;;;;;;;;;;;;;5.29;100.00;103069.34;5116147;28;19915;-72
2024/02/02 00:22:20;;;;;;;;;;;;;;;5.27;100.00;103071.06;5101549;28;19983;-72
2024/02/02 00:24:46;;;;;;;;;;;;;;;5.23;100.00;103076.19;5098855;28;19979;-72
2024/02/02 00:27:11;;;;;;;;;;;;;;;5.24;100.00;103072.72;5098451;28;19923;-72
2024/02/02 00:29:37;;;;;;;;;;;;;;;5.23;100.00;103084.84;5098952;28;20188;-72
2024/02/02 00:32:03;;;;;;;;;;;;;;;5.25;100.00;103095.28;5098432;28;19916;-72
2024/02/02 00:34:28;;;;;;;;;;;;;;;5.24;100.00;103084.00;5103252;28;20014;-72
2024/02/02 00:36:53;;;;;;;;;;;;;;;5.26;100.00;103089.25;5119450;28;19949;-72
2024/02/02 00:39:18;;;;;;;;;;;;;;;5.24;100.00;103076.22;5100799;28;19923;-72
2024/02/02 00:41:44;;;;;;;;;;;;;;;5.23;100.00;103060.59;5118993;28;20018;-72
2024/02/02 00:44:09;;;;;;;;;;;;;;;5.24;100.00;103070.13;5118558;28;19930;-72
2024/02/02 00:46:34;;;;;;;;;;;;;;;5.24;100.00;103060.63;5118108;28;20005;-72
2024/02/02 00:48:59;;;;;;;;;;;;;;;5.21;100.00;103055.38;5098527;28;20211;-72
2024/02/02 00:51:25;;;;;;;;;;;;;;;5.24;100.00;103060.63;5098771;28;19920;-72
2024/02/02 00:53:50;;;;;;;;;;;;;;;5.24;100.00;103052.84;5097751;28;19928;-72
2024/02/02 00:56:15;;;;;;;;;;;;;;;5.28;100.00;103062.44;5094792;28;19916;-72
2024/02/02 00:58:41;;;;;;;;;;;;;;;5.31;100.00;103062.50;5098516;28;19916;-72
2024/02/02 01:01:06;;;;;;;;;;;;;;;5.29;100.00;103055.50;5096400;28;19947;-72
2024/02/02 01:03:33;;;;;;;;;;;;;;;5.28;100.00;103064.16;5092998;28;20370;-72
2024/02/02 01:05:58;;;;;;;;;;;;;;;5.34;100.00;103049.53;5099012;28;20259;-72
2024/02/02 01:08:24;;;;;;;;;;;;;;;5.30;100.00;103039.06;5098624;28;19952;-72
2024/02/02 01:10:49;;;;;;;;;;;;;;;5.30;100.00;103039.06;5094443;28;20001;-72
2024/02/02 01:13:14;;;;;;;;;;;;;;;5.29;100.00;103038.16;5098367;28;19931;-72
2024/02/02 01:15:40;;;;;;;;;;;;;;;5.31;100.00;103036.50;5095332;28;19954;-72
2024/02/02 01:18:07;;;;;;;;;;;;;;;5.33;100.00;103042.59;5109520;28;19955;-72
2024/02/02 01:20:33;;;;;;;;;;;;;;;5.35;100.00;103034.84;5116728;28;19926;-72
2024/02/02 01:22:58;;;;;;;;;;;;;;;5.36;100.00;103041.75;5117864;28;19919;-72
2024/02/02 01:25:24;;;;;;;;;;;;;;;5.36;100.00;103036.56;5117866;28;19927;-72
2024/02/02 01:27:49;;;;;;;;;;;;;;;5.33;100.00;103033.91;5117446;28;19941;-72
2024/02/02 01:30:15;;;;;;;;;;;;;;;5.33;100.00;103029.59;5116809;28;20336;-72
2024/02/02 01:32:41;;;;;;;;;;;;;;;5.34;100.00;103017.47;5116136;28;20026;-72
2024/02/02 01:35:07;;;;;;;;;;;;;;;5.37;100.00;103014.94;5116994;28;20348;-72
2024/02/02 01:37:33;;;;;;;;;;;;;;;5.34;100.00;103022.66;5117714;28;19911;-72
2024/02/02 01:39:58;;;;;;;;;;;;;;;5.35;100.00;103014.91;5118096;28;19907;-72
2024/02/02 01:42:24;;;;;;;;;;;;;;;5.35;100.00;103006.25;5117664;28;19923;-72
2024/02/02 01:44:50;;;;;;;;;;;;;;;5.38;100.00;102998.47;5111940;28;19984;-72
2024/02/02 01:47:15;;;;;;;;;;;;;;;5.37;100.00;102996.75;5117772;28;19919;-72
2024/02/02 01:49:40;;;;;;;;;;;;;;;5.36;100.00;102980.25;5111239;28;19982;-72
2024/02/02 01:52:06;;;;;;;;;;;;;;;5.41;100.00;102974.28;5117792;28;19920;-72
2024/02/02 01:54:32;;;;;;;;;;;;;;;5.39;100.00;102971.66;5116737;28;20254;-72
2024/02/02 01:56:57;;;;;;;;;;;;;;;5.41;100.00;102974.28;5117032;28;19966;-72
2024/02/02 01:59:24;;;;;;;;;;;;;;;5.42;100.00;102978.59;5117273;28;19926;-72
2024/02/02 02:01:49;;;;;;;;;;;;;;;5.42;100.00;102984.69;5117509;28;19908;-72
2024/02/02 02:04:14;;;;;;;;;;;;;;;5.45;100.00;102971.72;5109816;28;19961;-72
2024/02/02 02:06:40;;;;;;;;;;;;;;;5.47;100.00;102972.63;5118692;28;19920;-72
2024/02/02 02:09:06;;;;;;;;;;;;;;;5.46;100.00;102957.91;5117445;28;20159;-72
2024/02/02 02:11:31;;;;;;;;;;;;;;;5.46;100.00;102957.91;5117269;28;20164;-72
2024/02/02 02:13:57;;;;;;;;;;;;;;;5.46;100.00;102957.03;5119422;28;20032;-72
2024/02/02 02:16:22;;;;;;;;;;;;;;;5.45;100.00;102956.13;5121195;28;20297;-72
2024/02/02 02:18:47;;;;;;;;;;;;;;;5.46;100.00;102951.84;5107697;28;20335;-72
2024/02/02 02:21:28;;;;;;;;;;;;;;;5.47;100.00;102945.78;5101515;28;20018;-72
2024/02/02 02:23:54;;;;;;;;;;;;;;;5.43;100.00;102944.84;5095373;28;19920;-72
2024/02/02 02:26:20;;;;;;;;;;;;;;;5.43;100.00;102944.84;5100725;28;19912;-72
2024/02/02 02:28:45;;;;;;;;;;;;;;;5.41;100.00;102943.09;5096770;28;19986;-72
2024/02/02 02:31:12;;;;;;;;;;;;;;;5.39;100.00;102948.28;5100647;28;20085;-71
2024/02/02 02:33:37;;;;;;;;;;;;;;;5.36;100.00;102949.06;5101143;28;19931;-71
2024/02/02 02:36:03;;;;;;;;;;;;;;;5.35;100.00;102946.47;5098938;28;19990;-71
2024/02/02 02:38:28;;;;;;;;;;;;;;;5.37;100.00;102944.78;5101739;28;20302;-71
2024/02/02 02:40:53;;;;;;;;;;;;;;;5.37;100.00;102939.59;5109920;28;19979;-71
2024/02/02 02:43:18;;;;;;;;;;;;;;;5.38;100.00;102936.13;5100521;28;20105;-72
2024/02/02 02:45:44;;;;;;;;;;;;;;;5.33;100.00;102938.66;5100032;28;20035;-71
2024/02/02 02:48:09;;;;;;;;;;;;;;;5.32;100.00;102949.03;5099848;28;19920;-71
2024/02/02 02:50:35;;;;;;;;;;;;;;;5.31;100.00;102939.47;5100993;28;19939;-71
2024/02/02 02:53:00;;;;;;;;;;;;;;;5.29;100.00;102931.66;5100168;28;19924;-71
2024/02/02 02:55:26;;;;;;;;;;;;;;;5.30;100.00;102929.94;5101143;28;19930;-71
2024/02/02 02:57:53;;;;;;;;;;;;;;;5.32;100.00;102936.91;5088933;28;20158;-71
2024/02/02 03:00:19;;;;;;;;;;;;;;;5.34;100.00;102940.38;5100101;28;19951;-71
2024/02/02 03:02:44;;;;;;;;;;;;;;;5.32;100.00;102934.31;5103318;28;20429;-71
2024/02/02 03:05:11;;;;;;;;;;;;;;;5.30;100.00;102946.41;5100950;28;19914;-71
2024/02/02 03:07:36;;;;;;;;;;;;;;;5.30;100.00;102936.00;5099566;28;19919;-71
2024/02/02 03:10:01;;;;;;;;;;;;;;;5.29;100.00;102935.97;5099752;28;19920;-71
2024/02/02 03:12:27;;;;;;;;;;;;;;;5.29;100.00;102938.59;5104383;28;19920;-71
2024/02/02 03:14:52;;;;;;;;;;;;;;;5.27;100.00;102941.16;5104663;28;19994;-71
2024/02/02 03:17:17;;;;;;;;;;;;;;;5.24;100.00;102924.63;5116927;28;19928;-71
2024/02/02 03:19:42;;;;;;;;;;;;;;;5.22;100.00;102914.25;5100380;28;19963;-71
2024/02/02 03:22:08;;;;;;;;;;;;;;;5.19;100.00;102912.47;5099896;28;19920;-71
2024/02/02 03:24:33;;;;;;;;;;;;;;;5.17;100.00;102901.19;5099336;28;19951;-71
2024/02/02 03:26:58;;;;;;;;;;;;;;;5.15;100.00;102908.09;5102615;28;19923;-71
2024/02/02 03:29:23;;;;;;;;;;;;;;;5.14;100.00;102897.66;5099215;28;19923;-71
2024/02/02 03:31:49;;;;;;;;;;;;;;;5.14;100.00;102900.25;5098058;28;19916;-71
2024/02/02 03:34:14;;;;;;;;;;;;;;;5.13;100.00;102895.91;5099915;28;19935;-71
2024/02/02 03:36:39;;;;;;;;;;;;;;;5.13;100.00;102889.00;5100325;28;19951;-71
2024/02/02 03:39:05;;;;;;;;;;;;;;;5.13;100.00;102889.00;5099078;28;19920;-72
2024/02/02 03:41:30;;;;;;;;;;;;;;;5.12;100.00;102895.03;5100165;28;19916;-72
2024/02/02 03:43:56;;;;;;;;;;;;;;;5.12;100.00;102897.63;5098744;28;19916;-72
2024/02/02 03:46:21;;;;;;;;;;;;;;;5.12;100.00;102896.78;5080962;28;20303;-72
2024/02/02 03:48:47;;;;;;;;;;;;;;;5.14;100.00;102889.88;5100398;28;19951;-72
2024/02/02 03:51:12;;;;;;;;;;;;;;;5.12;100.00;102902.84;5099119;28;19979;-71
2024/02/02 03:53:37;;;;;;;;;;;;;;;5.13;100.00;102896.81;5098099;28;19953;-71
2024/02/02 03:56:03;;;;;;;;;;;;;;;5.13;100.00;102890.72;5098320;28;19923;-71
2024/02/02 03:58:28;;;;;;;;;;;;;;;5.15;100.00;102896.84;5098836;28;19943;-71
2024/02/02 04:00:53;;;;;;;;;;;;;;;5.14;100.00;102885.53;5097862;28;19920;-71
2024/02/02 04:03:19;;;;;;;;;;;;;;;5.14;100.00;102888.13;5097977;28;19916;-71
2024/02/02 04:05:44;;;;;;;;;;;;;;;5.16;100.00;102878.63;5098199;28;19947;-71
2024/02/02 04:08:09;;;;;;;;;;;;;;;5.18;100.00;102876.97;5097369;28;19955;-71
2024/02/02 04:10:34;;;;;;;;;;;;;;;5.21;100.00;102883.06;5097660;28;20026;-71
2024/02/02 04:13:02;;;;;;;;;;;;;;;5.19;100.00;102872.63;5097744;28;20181;-71
2024/02/02 04:15:27;;;;;;;;;;;;;;;5.19;100.00;102877.84;5098521;28;19920;-71
2024/02/02 04:17:52;;;;;;;;;;;;;;;5.19;100.00;102883.03;5107451;28;19916;-71
2024/02/02 04:20:18;;;;;;;;;;;;;;;5.21;100.00;102867.47;5117683;28;20515;-71
2024/02/02 04:22:43;;;;;;;;;;;;;;;5.21;100.00;102868.34;5117511;28;19942;-71
2024/02/02 04:25:08;;;;;;;;;;;;;;;5.20;100.00;102871.75;5116446;28;20201;-71
2024/02/02 04:27:34;;;;;;;;;;;;;;;5.20;100.00;102858.78;5117616;28;19919;-71
2024/02/02 04:29:59;;;;;;;;;;;;;;;5.21;100.00;102859.66;5116927;28;19966;-71
2024/02/02 04:32:25;;;;;;;;;;;;;;;5.19;100.00;102862.25;5117812;28;19920;-71
2024/02/02 04:34:50;;;;;;;;;;;;;;;5.20;100.00;102861.38;5116758;28;19926;-71
2024/02/02 04:37:15;;;;;;;;;;;;;;;5.21;100.00;102873.53;5116546;28;19959;-71
2024/02/02 04:39:40;;;;;;;;;;;;;;;5.23;100.00;102874.41;5116276;28;19975;-71
2024/02/02 04:42:06;;;;;;;;;;;;;;;5.23;100.00;102868.34;5095128;28;19920;-71
2024/02/02 04:44:31;;;;;;;;;;;;;;;5.22;100.00;102864.00;5111539;28;19923;-71
2024/02/02 04:46:57;;;;;;;;;;;;;;;5.21;100.00;102849.28;5117353;28;19926;-71
2024/02/02 04:49:22;;;;;;;;;;;;;;;5.22;100.00;102848.41;5116708;28;19922;-71
2024/02/02 04:51:47;;;;;;;;;;;;;;;5.21;100.00;102850.16;5116671;28;19920;-71
2024/02/02 04:54:13;;;;;;;;;;;;;;;5.20;100.00;102838.00;5115259;28;19927;-71
2024/02/02 04:56:38;;;;;;;;;;;;;;;5.21;100.00;102837.16;5115292;28;19926;-71
2024/02/02 04:59:03;;;;;;;;;;;;;;;5.23;100.00;102838.03;5115888;28;19925;-71
2024/02/02 05:01:28;;;;;;;;;;;;;;;5.19;100.00;102837.13;5116936;28;20272;-71
2024/02/02 05:03:54;;;;;;;;;;;;;;;5.21;100.00;102826.78;5115564;28;19915;-72
2024/02/02 05:06:19;;;;;;;;;;;;;;;5.23;100.00;102842.38;5116609;28;19911;-72
2024/02/02 05:08:44;;;;;;;;;;;;;;;5.24;100.00;102836.31;5116518;28;19908;-72
2024/02/02 05:11:10;;;;;;;;;;;;;;;5.21;100.00;102831.97;5115953;28;20164;-72
2024/02/02 05:13:36;;;;;;;;;;;;;;;5.22;100.00;102828.53;5117055;28;19924;-72
2024/02/02 05:16:01;;;;;;;;;;;;;;;5.19;100.00;102821.53;5115632;28;20180;-72
2024/02/02 05:18:26;;;;;;;;;;;;;;;5.23;100.00;102819.00;5116968;28;19924;-72
2024/02/02 05:20:51;;;;;;;;;;;;;;;5.23;100.00;102814.66;5115611;28;19926;-72
2024/02/02 05:23:17;;;;;;;;;;;;;;;5.22;100.00;102812.03;5115960;28;19927;-72
2024/02/02 05:25:42;;;;;;;;;;;;;;;5.26;100.00;102816.44;5116723;28;19923;-72
2024/02/02 05:28:07;;;;;;;;;;;;;;;5.27;100.00;102815.59;5116408;28;20134;-72
2024/02/02 05:30:33;;;;;;;;;;;;;;;5.28;100.00;102804.34;5115682;28;20204;-72
2024/02/02 05:32:58;;;;;;;;;;;;;;;5.28;100.00;102817.34;5116434;28;19926;-72
2024/02/02 05:35:23;;;;;;;;;;;;;;;5.27;100.00;102816.44;5115520;28;19938;-72
2024/02/02 05:37:49;;;;;;;;;;;;;;;5.24;100.00;102819.03;5115487;28;19919;-72
2024/02/02 05:40:14;;;;;;;;;;;;;;;5.29;100.00;102826.84;5112906;28;19927;-72
2024/02/02 05:42:43;;;;;;;;;;;;;;;5.29;100.00;102821.66;5096825;28;19920;-72
2024/02/02 05:45:09;;;;;;;;;;;;;;;5.27;100.00;102824.22;5109797;28;20238;-72
2024/02/02 05:47:34;;;;;;;;;;;;;;;5.25;100.00;102825.09;5115021;28;19994;-72
2024/02/02 05:49:59;;;;;;;;;;;;;;;5.27;100.00;102815.59;5100784;28;19923;-72
2024/02/02 05:52:24;;;;;;;;;;;;;;;5.27;100.00;102806.06;5120101;28;19912;-72
2024/02/02 05:54:50;;;;;;;;;;;;;;;5.29;100.00;102816.47;5119622;28;19919;-72
2024/02/02 05:57:15;;;;;;;;;;;;;;;5.25;100.00;102819.88;5119664;28;19912;-72
2024/02/02 05:59:40;;;;;;;;;;;;;;;5.22;100.00;102825.94;5120343;28;20276;-72
2024/02/02 06:02:05;;;;;;;;;;;;;;;5.22;100.00;102831.13;5116275;28;19920;-72
2024/02/02 06:04:31;;;;;;;;;;;;;;;5.23;100.00;102829.38;5118665;28;19915;-72
2024/02/02 06:06:56;;;;;;;;;;;;;;;5.25;100.00;102827.69;5118387;28;19927;-72
2024/02/02 06:09:22;;;;;;;;;;;;;;;5.25;100.00;102822.50;5118754;28;19920;-72
2024/02/02 06:11:47;;;;;;;;;;;;;;;5.26;100.00;102827.72;5116060;28;19986;-72
2024/02/02 06:14:12;;;;;;;;;;;;;;;5.26;100.00;102829.44;5118794;28;19997;-72
2024/02/02 06:16:37;;;;;;;;;;;;;;;5.27;100.00;102821.63;5116721;28;19930;-72
2024/02/02 06:19:03;;;;;;;;;;;;;;;5.26;100.00;102821.66;5118358;28;20006;-72
2024/02/02 06:21:28;;;;;;;;;;;;;;;5.28;100.00;102828.59;5119074;28;19919;-72
2024/02/02 06:23:53;;;;;;;;;;;;;;;5.27;100.00;102824.22;5119565;28;19916;-72
2024/02/02 06:26:19;;;;;;;;;;;;;;;5.26;100.00;102829.44;5119253;28;19959;-72
2024/02/02 06:28:45;;;;;;;;;;;;;;;5.25;100.00;102830.28;5118746;28;19931;-72
2024/02/02 06:31:10;;;;;;;;;;;;;;;5.28;100.00;102820.81;5119207;28;19920;-72
2024/02/02 06:33:35;;;;;;;;;;;;;;;5.28;100.00;102814.75;5118944;28;20295;-72
2024/02/02 06:36:01;;;;;;;;;;;;;;;5.30;100.00;102823.44;5112900;28;19981;-72
2024/02/02 06:38:26;;;;;;;;;;;;;;;5.31;100.00;102825.16;5119423;28;20016;-72
2024/02/02 06:40:51;;;;;;;;;;;;;;;5.31;100.00;102831.25;5118462;28;19931;-72
2024/02/02 06:43:17;;;;;;;;;;;;;;;5.33;100.00;102829.53;5116446;28;19934;-72
2024/02/02 06:45:42;;;;;;;;;;;;;;;5.33;100.00;102841.63;5119381;28;19935;-72
2024/02/02 06:48:11;;;;;;;;;;;;;;;5.32;100.00;102838.16;5117793;28;19986;-72
2024/02/02 06:50:36;;;;;;;;;;;;;;;5.33;100.00;102831.22;5126445;27;19919;-72
2024/02/02 06:53:02;;;;;;;;;;;;;;;5.34;100.00;102827.81;5129983;27;19929;-72
2024/02/02 06:55:29;;;;;;;;;;;;;;;5.36;100.00;102818.28;5126795;27;19983;-72
2024/02/02 06:57:57;;;;;;;;;;;;;;;5.37;100.00;102815.72;5117847;28;20135;-72
2024/02/02 07:00:22;;;;;;;;;;;;;;;5.37;100.00;102818.31;5113354;28;19924;-72
2024/02/02 07:02:48;;;;;;;;;;;;;;;5.37;100.00;102822.66;5104601;28;19982;-72
2024/02/02 07:05:14;;;;;;;;;;;;;;;5.38;100.00;102826.97;5117450;28;19950;-72
2024/02/02 07:07:40;;;;;;;;;;;;;;;5.38;100.00;102817.47;5100530;28;19919;-72
2024/02/02 07:10:07;;;;;;;;;;;;;;;5.36;100.00;102811.38;5116371;28;19958;-72
2024/02/02 07:12:32;;;;;;;;;;;;;;;5.36;100.00;102821.75;5118005;28;19924;-72
2024/02/02 07:15:01;;;;;;;;;;;;;;;5.36;100.00;102819.16;5117797;28;19945;-72
2024/02/02 07:17:46;;;;;;;;;;;;;;;5.37;100.00;102828.72;5117872;28;19923;-72
2024/02/02 07:20:21;;;;;;;;;;;;;;;5.37;100.00;102822.66;5117977;28;19919;-72
2024/02/02 07:22:46;;;;;;;;;;;;;;;5.38;100.00;102821.78;5119667;28;20319;-72
2024/02/02 07:25:13;;;;;;;;;;;;;;;5.39;100.00;102816.59;5117105;28;19984;-72
2024/02/02 07:27:49;;;;;;;;;;;;;;;5.38;100.00;102817.47;5117586;28;19959;-72
2024/02/02 07:30:17;;;;;;;;;;;;;;;5.39;100.00;102821.81;5117691;28;19925;-72
2024/02/02 07:32:43;;;;;;;;;;;;;;;5.42;100.00;102815.78;5118123;28;19912;-72
2024/02/02 07:35:17;;;;;;;;;;;;;;;5.42;100.00;102813.19;5118647;28;20457;-72
2024/02/02 07:37:46;;;;;;;;;;;;;;;5.43;100.00;102814.91;5115077;27;19991;-72
2024/02/02 07:40:29;;;;;;;;;;;;;;;5.45;100.00;102820.13;5116469;28;19927;-72
2024/02/02 07:42:55;;;;;;;;;;;;;;;5.46;100.00;102819.31;5116467;28;20134;-72
2024/02/02 07:45:20;;;;;;;;;;;;;;;5.47;100.00;102814.09;5115986;28;19927;-72
2024/02/02 07:47:45;;;;;;;;;;;;;;;5.48;100.00;102818.44;5116952;28;19953;-72
2024/02/02 07:50:10;;;;;;;;;;;;;;;5.49;100.00;102808.91;5115653;28;20184;-72
2024/02/02 07:52:36;;;;;;;;;;;;;;;5.48;100.00;102808.06;5117572;28;19920;-72
2024/02/02 07:55:01;;;;;;;;;;;;;;;5.50;100.00;102813.28;5116958;28;19941;-72
2024/02/02 07:57:26;;;;;;;;;;;;;;;5.53;100.00;102811.59;5117951;28;19930;-72
2024/02/02 07:59:51;;;;;;;;;;;;;;;5.57;100.00;102804.69;5117062;28;19926;-72
2024/02/02 08:02:17;;;;;;;;;;;;;;;5.58;100.00;102811.63;5112122;28;20160;-72
2024/02/02 08:04:42;;;;;;;;;;;;;;;5.59;100.00;102815.97;5117774;28;19957;-72
2024/02/02 08:07:07;;;;;;;;;;;;;;;5.61;100.00;102805.59;5118103;28;19947;-72
2024/02/02 08:09:33;;;;;;;;;;;;;;;5.64;100.00;102803.03;5116956;28;19916;-72
2024/02/02 08:11:58;;;;;;;;;;;;;;;5.66;100.00;102802.19;5117529;28;19943;-72
2024/02/02 08:14:23;;;;;;;;;;;;;;;5.71;100.00;102807.44;5116833;28;20119;-72
2024/02/02 08:16:48;;;;;;;;;;;;;;;5.74;100.00;102804.88;5116096;28;20180;-72
2024/02/02 08:19:14;;;;;;;;;;;;;;;5.76;100.00;102804.03;5115289;28;20208;-72
2024/02/02 08:21:39;;;;;;;;;;;;;;;5.80;100.00;102801.47;5117755;28;19920;-72
2024/02/02 08:24:05;;;;;;;;;;;;;;;5.81;100.00;102791.09;5117126;28;20114;-72
2024/02/02 08:26:30;;;;;;;;;;;;;;;5.85;100.00;102797.19;5117241;28;19920;-72
2024/02/02 08:28:55;;;;;;;;;;;;;;;5.87;100.00;102783.34;5117103;28;19915;-72
2024/02/02 08:31:21;;;;;;;;;;;;;;;5.89;100.00;102794.63;5116682;28;20218;-72
2024/02/02 08:33:46;;;;;;;;;;;;;;;5.92;100.00;102776.47;5116446;28;19924;-72
2024/02/02 08:36:12;;;;;;;;;;;;;;;5.95;100.00;102780.84;5114658;28;20123;-72
2024/02/02 08:38:37;;;;;;;;;;;;;;;5.99;100.00;102780.03;5116470;28;19920;-72
2024/02/02 08:41:04;;;;;;;;;;;;;;;6.03;100.00;102773.13;5116120;28;19920;-72
2024/02/02 08:43:29;;;;;;;;;;;;;;;6.06;100.00;102776.63;5116541;28;19915;-72
2024/02/02 08:46:07;;;;;;;;;;;;;;;6.08;100.00;102777.53;5116471;28;19915;-72
2024/02/02 08:48:37;;;;;;;;;;;;;;;6.11;100.00;102782.75;5109403;28;19953;-72
2024/02/02 08:51:10;;;;;;;;;;;;;;;6.13;100.00;102770.63;5115785;28;20116;-72
2024/02/02 08:53:35;;;;;;;;;;;;;;;6.17;100.00;102765.44;5116002;28;19923;-72
2024/02/02 08:56:01;;;;;;;;;;;;;;;6.19;100.00;102768.94;5115756;28;20064;-72
2024/02/02 08:58:27;;;;;;;;;;;;;;;6.22;100.00;102774.16;5115750;28;19914;-72
2024/02/02 09:00:53;;;;;;;;;;;;;;;6.24;100.00;102765.53;5093068;28;20134;-72
2024/02/02 09:03:31;;;;;;;;;;;;;;;6.26;100.00;102757.72;5109204;28;19920;-72
2024/02/02 09:05:57;;;;;;;;;;;;;;;6.28;100.00;102761.22;5111376;28;19927;-72
2024/02/02 09:08:22;;;;;;;;;;;;;;;6.33;100.00;102760.38;5110011;28;20124;-72
2024/02/02 09:10:56;;;;;;;;;;;;;;;6.38;100.00;102772.56;5108425;27;19935;-72
2024/02/02 09:13:27;;;;;;;;;;;;;;;6.42;100.00;102759.59;5103714;28;20005;-72
2024/02/02 09:15:53;;;;;;;;;;;;;;;6.44;100.00;102763.06;5111009;28;19985;-72
2024/02/02 09:18:34;;;;;;;;;;;;;;;6.45;100.00;102759.59;5111273;28;20684;-72
2024/02/02 09:21:00;;;;;;;;;;;;;;;6.47;100.00;102767.41;5106670;28;20154;-72
2024/02/02 09:23:26;;;;;;;;;;;;;;;6.50;100.00;102768.31;5118692;28;19987;-72
2024/02/02 09:25:51;;;;;;;;;;;;;;;6.54;100.00;102775.28;5117537;28;20714;-72
2024/02/02 09:28:19;;;;;;;;;;;;;;;6.57;100.00;102766.63;5110961;28;20180;-72
2024/02/02 09:30:45;;;;;;;;;;;;;;;6.61;100.00;102771.00;5119599;28;20243;-72
2024/02/02 09:33:33;;;;;;;;;;;;;;;6.65;100.00;102759.72;5118892;28;19978;-72
2024/02/02 09:35:59;;;;;;;;;;;;;;;6.68;100.00;102751.09;5115036;28;19927;-72
2024/02/02 09:38:25;;;;;;;;;;;;;;;6.74;100.00;102764.13;5099770;28;19927;-72
2024/02/02 09:41:13;;;;;;;;;;;;;;;6.77;100.00;102756.34;5119525;27;20262;-72
2024/02/02 09:43:44;;;;;;;;;;;;;;;6.84;100.00;102760.72;5119834;27;20021;-72
2024/02/02 09:46:20;;;;;;;;;;;;;;;6.91;100.00;102748.59;5117206;27;19924;-72
2024/02/02 09:49:04;;;;;;;;;;;;;;;6.96;100.00;102748.63;5119153;28;19919;-72
2024/02/02 09:51:32;;;;;;;;;;;;;;;7.03;100.00;102747.78;5117574;28;20224;-72
2024/02/02 09:53:57;;;;;;;;;;;;;;;7.08;100.00;102746.94;5119295;27;20099;-72
2024/02/02 09:56:32;;;;;;;;;;;;;;;7.14;100.00;102760.88;5119475;27;19919;-72
2024/02/02 09:59:08;;;;;;;;;;;;;;;7.18;100.00;102765.22;5119045;27;19924;-72
2024/02/02 10:01:33;;;;;;;;;;;;;;;7.21;100.00;102762.63;5118108;27;19926;-72
2024/02/02 10:04:17;;;;;;;;;;;;;;;7.21;100.00;102773.94;5118360;27;19978;-73
2024/02/02 10:06:57;;;;;;;;;;;;;;;7.23;100.00;102777.41;5111383;27;19928;-72
2024/02/02 10:09:35;;;;;;;;;;;;;;;7.26;100.00;102773.97;5115179;28;19930;-72
2024/02/02 10:12:06;;;;;;;;;;;;;;;7.28;100.00;102764.41;5120467;27;20515;-72
2024/02/02 10:14:39;;;;;;;;;;;;;;;7.31;100.00;102761.78;5116102;28;20146;-72
2024/02/02 10:17:05;;;;;;;;;;;;;;;7.36;100.00;102760.06;5118290;28;19920;-72
2024/02/02 10:19:33;;;;;;;;;;;;;;;7.39;100.00;102761.84;5120000;28;19959;-72
2024/02/02 10:22:01;;;;;;;;;;;;;;;7.41;100.00;102762.72;5118017;28;19923;-72
2024/02/02 10:24:32;;;;;;;;;;;;;;;7.45;100.00;102772.28;5116537;27;20285;-72
2024/02/02 10:27:16;;;;;;;;;;;;;;;7.41;100.00;102766.19;5106504;27;19934;-72
2024/02/02 10:29:44;;;;;;;;;;;;;;;7.43;100.00;102767.06;5112450;27;19958;-72
2024/02/02 10:32:15;;;;;;;;;;;;;;;7.44;100.00;102765.31;5121038;28;20301;-72
2024/02/02 10:34:59;;;;;;;;;;;;;;;7.41;100.00;102765.31;5116399;28;19997;-73
2024/02/02 10:37:24;;;;;;;;;;;;;;;7.42;100.00;102767.94;5115306;28;19912;-72
2024/02/02 10:39:49;;;;;;;;;;;;;;;7.43;100.00;102769.66;5114543;28;19922;-72
2024/02/02 10:42:41;;;;;;;;;;;;;;;7.41;100.00;102760.09;5114950;28;19930;-72
2024/02/02 10:45:23;;;;;;;;;;;;;;;7.43;100.00;102771.41;5108204;27;20298;-72
2024/02/02 10:48:07;;;;;;;;;;;;;;;7.45;100.00;102773.13;5102256;28;19920;-72
2024/02/02 10:50:45;;;;;;;;;;;;;;;7.43;100.00;102763.59;5107137;27;19916;-72
2024/02/02 10:53:29;;;;;;;;;;;;;;;7.44;100.00;102765.31;5110231;27;20017;-72
2024/02/02 10:56:01;;;;;;;;;;;;;;;7.43;100.00;102754.03;5116696;27;20002;-72
2024/02/02 10:58:35;;;;;;;;;;;;;;;7.46;100.00;102753.19;5111509;27;19931;-72
2024/02/02 11:01:10;;;;;;;;;;;;;;;7.42;100.00;102749.69;5114947;27;19939;-72
2024/02/02 11:03:36;;;;;;;;;;;;;;;7.42;100.00;102765.34;5097563;28;19924;-72
2024/02/02 11:06:20;;;;;;;;;;;;;;;7.44;100.00;102761.00;5116629;27;19922;-72
2024/02/02 11:08:54;;;;;;;;;;;;;;;7.43;100.00;102779.22;5117078;27;20016;-72
2024/02/02 11:11:22;;;;;;;;;;;;;;;7.38;100.00;102786.16;5116792;27;19925;-72
2024/02/02 11:13:50;;;;;;;;;;;;;;;7.36;100.00;102786.16;5116033;27;19999;-72
2024/02/02 11:16:17;;;;;;;;;;;;;;;7.39;100.00;102791.38;5115955;27;19916;-72
2024/02/02 11:18:45;;;;;;;;;;;;;;;7.35;100.00;102784.41;5117152;27;19923;-72
2024/02/02 11:21:25;;;;;;;;;;;;;;;7.32;100.00;102765.28;5116174;27;19961;-73
2024/02/02 11:23:53;;;;;;;;;;;;;;;7.32;100.00;102770.50;5115369;27;20313;-72
2024/02/02 11:26:18;;;;;;;;;;;;;;;7.30;100.00;102776.56;5116546;27;19967;-72
2024/02/02 11:29:16;;;;;;;;;;;;;;;7.25;100.00;102767.84;5116889;27;19999;-72
2024/02/02 11:31:59;;;;;;;;;;;;;;;7.24;100.00;102781.78;5042913;27;19919;-72
2024/02/02 11:34:34;;;;;;;;;;;;;;;7.24;100.00;102789.59;5114580;27;19924;-71
2024/02/02 11:37:26;;;;;;;;;;;;;;;7.23;100.00;102774.78;5115203;27;20073;-71
2024/02/02 11:39:56;;;;;;;;;;;;;;;7.26;100.00;102771.34;5090280;27;19924;-71
2024/02/02 11:42:23;;;;;;;;;;;;;;;7.21;100.00;102762.63;5113601;28;19919;-71
2024/02/02 11:44:49;;;;;;;;;;;;;;;7.19;100.00;102760.03;5113427;28;19930;-71
2024/02/02 11:47:18;;;;;;;;;;;;;;;7.22;100.00;102751.34;5113173;28;19915;-71
2024/02/02 11:49:46;;;;;;;;;;;;;;;7.20;100.00;102753.06;5112984;27;19919;-71
2024/02/02 11:52:29;;;;;;;;;;;;;;;7.25;100.00;102769.59;5113734;28;19916;-71
2024/02/02 11:55:14;;;;;;;;;;;;;;;7.26;100.00;102771.34;5112213;28;19926;-71
2024/02/02 11:57:44;;;;;;;;;;;;;;;7.26;100.00;102760.94;5095208;28;19926;-71
2024/02/02 12:00:12;;;;;;;;;;;;;;;7.26;100.00;102758.31;5111364;27;19972;-71
2024/02/02 12:02:49;;;;;;;;;;;;;;;7.28;100.00;102770.47;5104856;27;19919;-71
2024/02/02 12:05:21;;;;;;;;;;;;;;;7.29;100.00;102753.09;5095544;28;19991;-71
2024/02/02 12:07:58;;;;;;;;;;;;;;;7.30;100.00;102762.69;5115223;27;19918;-71
2024/02/02 12:10:27;;;;;;;;;;;;;;;7.34;100.00;102746.16;5115310;27;19920;-71
2024/02/02 12:12:58;;;;;;;;;;;;;;;7.34;100.00;102759.19;5116509;28;19928;-71
2024/02/02 12:15:26;;;;;;;;;;;;;;;7.37;100.00;102760.94;5117772;27;19919;-71
2024/02/02 12:17:51;;;;;;;;;;;;;;;7.40;100.00;102750.53;5115554;28;19930;-71
2024/02/02 12:20:17;;;;;;;;;;;;;;;7.42;100.00;102748.78;5131460;27;19920;-71
2024/02/02 12:22:42;;;;;;;;;;;;;;;7.45;100.00;102741.00;5126046;27;20154;-71
2024/02/02 12:25:13;;;;;;;;;;;;;;;7.48;100.00;102759.25;5124512;27;19915;-71
2024/02/02 12:27:39;;;;;;;;;;;;;;;7.49;100.00;102742.72;5099468;28;19961;-71
2024/02/02 12:30:08;;;;;;;;;;;;;;;7.50;100.00;102732.31;5113385;27;19919;-71
2024/02/02 12:32:33;;;;;;;;;;;;;;;7.54;100.00;102721.91;5116863;27;19958;-71
2024/02/02 12:34:58;;;;;;;;;;;;;;;7.54;100.00;102727.13;5114345;28;20276;-71
2024/02/02 12:37:24;;;;;;;;;;;;;;;7.56;100.00;102721.03;5115883;28;20204;-71